sensor_id;sensor_type;location;lat;lon;timestamp;pressure;altitude;pressure_sealevel;temperature
49557;BMP280;35462;45.048;7.666;2023-03-01T00:10:34;99244.47;;;8.27
49557;BMP280;35462;45.048;7.666;2023-03-01T00:25:51;99246.03;;;8.39
49557;BMP280;35462;45.048;7.666;2023-03-01T00:41:10;99230.63;;;8.48
49557;BMP280;35462;45.048;7.666;2023-03-01T00:56:31;99224.59;;;8.51
49557;BMP280;35462;45.048;7.666;2023-03-01T01:11:49;99204.66;;;8.63
49557;BMP280;35462;45.048;7.666;2023-03-01T01:27:13;99199.41;;;8.70
49557;BMP280;35462;45.048;7.666;2023-03-01T01:42:30;99176.38;;;8.71
49557;BMP280;35462;45.048;7.666;2023-03-01T01:57:49;99177.53;;;8.73
49557;BMP280;35462;45.048;7.666;2023-03-01T02:13:06;99151.91;;;8.74
49557;BMP280;35462;45.048;7.666;2023-03-01T02:28:32;99134.91;;;8.71
49557;BMP280;35462;45.048;7.666;2023-03-01T02:43:49;99125.88;;;8.72
49557;BMP280;35462;45.048;7.666;2023-03-01T02:59:08;99102.50;;;8.74
49557;BMP280;35462;45.048;7.666;2023-03-01T03:14:26;99083.63;;;8.69
49557;BMP280;35462;45.048;7.666;2023-03-01T03:29:42;99075.34;;;8.70
49557;BMP280;35462;45.048;7.666;2023-03-01T03:44:59;99064.41;;;8.68
49557;BMP280;35462;45.048;7.666;2023-03-01T04:00:15;99067.00;;;8.58
49557;BMP280;35462;45.048;7.666;2023-03-01T04:15:34;99047.81;;;8.57
49557;BMP280;35462;45.048;7.666;2023-03-01T04:30:53;99040.25;;;8.59
49557;BMP280;35462;45.048;7.666;2023-03-01T04:46:12;99041.78;;;8.60
49557;BMP280;35462;45.048;7.666;2023-03-01T05:01:31;99035.00;;;8.63
49557;BMP280;35462;45.048;7.666;2023-03-01T05:16:46;99029.72;;;8.66
49557;BMP280;35462;45.048;7.666;2023-03-01T05:32:03;99039.47;;;8.76
49557;BMP280;35462;45.048;7.666;2023-03-01T05:47:19;99032.72;;;8.68
49557;BMP280;35462;45.048;7.666;2023-03-01T06:02:36;99035.75;;;8.70
49557;BMP280;35462;45.048;7.666;2023-03-01T06:17:55;99039.53;;;8.56
49557;BMP280;35462;45.048;7.666;2023-03-01T06:33:12;99047.06;;;8.60
49557;BMP280;35462;45.048;7.666;2023-03-01T06:48:29;99047.41;;;8.49
49557;BMP280;35462;45.048;7.666;2023-03-01T07:03:45;99050.78;;;8.39
49557;BMP280;35462;45.048;7.666;2023-03-01T07:19:01;99054.59;;;8.45
49557;BMP280;35462;45.048;7.666;2023-03-01T07:34:17;99056.84;;;8.57
49557;BMP280;35462;45.048;7.666;2023-03-01T07:49:34;99050.44;;;8.68
49557;BMP280;35462;45.048;7.666;2023-03-01T08:04:49;99050.78;;;9.01
49557;BMP280;35462;45.048;7.666;2023-03-01T08:20:06;99040.19;;;9.15
49557;BMP280;35462;45.048;7.666;2023-03-01T08:35:23;99034.50;;;9.34
49557;BMP280;35462;45.048;7.666;2023-03-01T08:50:38;99042.75;;;9.43
49557;BMP280;35462;45.048;7.666;2023-03-01T09:05:59;99026.34;;;9.79
49557;BMP280;35462;45.048;7.666;2023-03-01T09:21:17;99022.53;;;9.87
49557;BMP280;35462;45.048;7.666;2023-03-01T09:36:34;99008.69;;;10.24
49557;BMP280;35462;45.048;7.666;2023-03-01T09:51:56;98997.84;;;10.52
49557;BMP280;35462;45.048;7.666;2023-03-01T10:22:32;98981.94;;;10.88
49557;BMP280;35462;45.048;7.666;2023-03-01T11:08:44;98915.56;;;11.32
49557;BMP280;35462;45.048;7.666;2023-03-01T11:24:01;98880.53;;;11.18
49557;BMP280;35462;45.048;7.666;2023-03-01T11:39:30;98846.69;;;11.52
49557;BMP280;35462;45.048;7.666;2023-03-01T12:10:23;98780.16;;;11.66
49557;BMP280;35462;45.048;7.666;2023-03-01T12:25:57;98738.06;;;11.68
49557;BMP280;35462;45.048;7.666;2023-03-01T12:57:14;98701.31;;;11.89
49557;BMP280;35462;45.048;7.666;2023-03-01T13:12:50;98693.50;;;11.98
49557;BMP280;35462;45.048;7.666;2023-03-01T13:43:53;98660.63;;;11.95
49557;BMP280;35462;45.048;7.666;2023-03-01T13:59:19;98670.81;;;11.97
49557;BMP280;35462;45.048;7.666;2023-03-01T14:14:45;98684.13;;;11.93
49557;BMP280;35462;45.048;7.666;2023-03-01T14:45:30;98713.13;;;11.65
49557;BMP280;35462;45.048;7.666;2023-03-01T15:00:51;98717.03;;;11.57
49557;BMP280;35462;45.048;7.666;2023-03-01T15:16:12;98736.09;;;11.52
49557;BMP280;35462;45.048;7.666;2023-03-01T15:31:32;98759.16;;;11.32
49557;BMP280;35462;45.048;7.666;2023-03-01T15:46:51;98797.22;;;11.19
49557;BMP280;35462;45.048;7.666;2023-03-01T16:02:09;98830.59;;;11.16
49557;BMP280;35462;45.048;7.666;2023-03-01T16:17:26;98851.44;;;11.14
49557;BMP280;35462;45.048;7.666;2023-03-01T16:32:44;98858.63;;;10.87
49557;BMP280;35462;45.048;7.666;2023-03-01T16:48:00;98865.19;;;10.76
49557;BMP280;35462;45.048;7.666;2023-03-01T17:53:11;98883.53;;;10.60
49557;BMP280;35462;45.048;7.666;2023-03-01T18:08:29;98914.84;;;10.32
49557;BMP280;35462;45.048;7.666;2023-03-01T18:23:44;98930.44;;;10.23
49557;BMP280;35462;45.048;7.666;2023-03-01T18:39:03;98964.56;;;10.10
49557;BMP280;35462;45.048;7.666;2023-03-01T18:54:19;98958.16;;;10.08
49557;BMP280;35462;45.048;7.666;2023-03-01T19:09:35;98957.47;;;9.97
49557;BMP280;35462;45.048;7.666;2023-03-01T19:24:51;98967.34;;;9.89
49557;BMP280;35462;45.048;7.666;2023-03-01T19:40:08;98954.50;;;9.91
49557;BMP280;35462;45.048;7.666;2023-03-01T19:55:24;98973.78;;;9.85
49557;BMP280;35462;45.048;7.666;2023-03-01T20:10:40;98987.88;;;9.68
49557;BMP280;35462;45.048;7.666;2023-03-01T20:26:11;98996.53;;;9.72
49557;BMP280;35462;45.048;7.666;2023-03-01T20:41:33;99017.38;;;9.63
49557;BMP280;35462;45.048;7.666;2023-03-01T20:56:49;99027.59;;;9.54
49557;BMP280;35462;45.048;7.666;2023-03-01T21:12:05;99021.56;;;9.50
49557;BMP280;35462;45.048;7.666;2023-03-01T21:27:20;99031.81;;;9.48
49557;BMP280;35462;45.048;7.666;2023-03-01T21:42:36;99028.38;;;9.51
49557;BMP280;35462;45.048;7.666;2023-03-01T21:57:53;99040.09;;;9.47
49557;BMP280;35462;45.048;7.666;2023-03-01T22:13:09;99050.75;;;9.15
49557;BMP280;35462;45.048;7.666;2023-03-01T22:28:25;99059.88;;;8.72
49557;BMP280;35462;45.048;7.666;2023-03-01T22:43:40;99071.19;;;8.62
49557;BMP280;35462;45.048;7.666;2023-03-01T22:58:58;99076.09;;;8.78
49557;BMP280;35462;45.048;7.666;2023-03-01T23:14:14;99074.94;;;8.79
49557;BMP280;35462;45.048;7.666;2023-03-01T23:29:31;99082.50;;;8.91
49557;BMP280;35462;45.048;7.666;2023-03-01T23:44:47;99079.09;;;8.90
